sensor_id;sensor_type;location;lat;lon;timestamp;temperature;humidity
1447;DHT22;717;51.522;7.266;2023-11-21T00:00:59;13.40;99.90
1447;DHT22;717;51.522;7.266;2023-11-21T00:03:33;13.40;99.90
1447;DHT22;717;51.522;7.266;2023-11-21T00:06:04;13.40;99.90
1447;DHT22;717;51.522;7.266;2023-11-21T00:08:36;13.40;99.90
1447;DHT22;717;51.522;7.266;2023-11-21T00:11:06;13.40;99.90
1447;DHT22;717;51.522;7.266;2023-11-21T00:13:36;13.40;99.90
1447;DHT22;717;51.522;7.266;2023-11-21T00:16:07;13.40;99.90
1447;DHT22;717;51.522;7.266;2023-11-21T00:18:40;13.40;99.90
1447;DHT22;717;51.522;7.266;2023-11-21T00:21:10;13.40;99.90
1447;DHT22;717;51.522;7.266;2023-11-21T00:23:40;13.40;99.90
1447;DHT22;717;51.522;7.266;2023-11-21T00:26:10;13.40;99.90
1447;DHT22;717;51.522;7.266;2023-11-21T00:28:45;13.40;99.90
1447;DHT22;717;51.522;7.266;2023-11-21T00:31:16;13.40;99.90
1447;DHT22;717;51.522;7.266;2023-11-21T00:33:48;13.40;99.90
1447;DHT22;717;51.522;7.266;2023-11-21T00:36:19;13.50;99.90
1447;DHT22;717;51.522;7.266;2023-11-21T00:38:49;13.50;99.90
1447;DHT22;717;51.522;7.266;2023-11-21T00:41:19;13.50;99.90
1447;DHT22;717;51.522;7.266;2023-11-21T00:43:49;13.50;99.90
1447;DHT22;717;51.522;7.266;2023-11-21T00:46:19;13.50;99.90
1447;DHT22;717;51.522;7.266;2023-11-21T00:48:53;13.50;99.90
1447;DHT22;717;51.522;7.266;2023-11-21T00:51:24;13.50;99.90
1447;DHT22;717;51.522;7.266;2023-11-21T00:53:54;13.60;99.90
1447;DHT22;717;51.522;7.266;2023-11-21T00:56:24;13.50;99.90
1447;DHT22;717;51.522;7.266;2023-11-21T00:58:54;13.60;99.90
1447;DHT22;717;51.522;7.266;2023-11-21T01:01:24;13.50;99.90
1447;DHT22;717;51.522;7.266;2023-11-21T01:03:57;13.60;99.90
1447;DHT22;717;51.522;7.266;2023-11-21T01:06:28;13.60;99.90
1447;DHT22;717;51.522;7.266;2023-11-21T01:08:58;13.60;99.90
1447;DHT22;717;51.522;7.266;2023-11-21T01:11:28;13.60;99.90
1447;DHT22;717;51.522;7.266;2023-11-21T01:13:58;13.60;99.90
1447;DHT22;717;51.522;7.266;2023-11-21T01:16:28;13.60;99.90
1447;DHT22;717;51.522;7.266;2023-11-21T01:19:02;13.60;99.90
1447;DHT22;717;51.522;7.266;2023-11-21T01:21:32;13.70;99.90
1447;DHT22;717;51.522;7.266;2023-11-21T01:24:03;13.70;99.90
1447;DHT22;717;51.522;7.266;2023-11-21T01:26:34;13.70;99.90
1447;DHT22;717;51.522;7.266;2023-11-21T01:29:04;13.70;99.90
1447;DHT22;717;51.522;7.266;2023-11-21T01:31:34;13.70;99.90
1447;DHT22;717;51.522;7.266;2023-11-21T01:34:08;13.70;99.90
1447;DHT22;717;51.522;7.266;2023-11-21T01:36:38;13.70;99.90
1447;DHT22;717;51.522;7.266;2023-11-21T01:39:08;13.70;99.90
1447;DHT22;717;51.522;7.266;2023-11-21T01:41:42;13.70;99.90
1447;DHT22;717;51.522;7.266;2023-11-21T01:44:14;13.80;99.90
1447;DHT22;717;51.522;7.266;2023-11-21T01:46:47;13.70;99.90
1447;DHT22;717;51.522;7.266;2023-11-21T01:49:20;13.70;99.90
1447;DHT22;717;51.522;7.266;2023-11-21T01:51:51;13.80;99.90
1447;DHT22;717;51.522;7.266;2023-11-21T01:54:22;13.70;99.90
1447;DHT22;717;51.522;7.266;2023-11-21T01:56:52;13.70;99.90
1447;DHT22;717;51.522;7.266;2023-11-21T01:59:22;13.70;99.90
1447;DHT22;717;51.522;7.266;2023-11-21T02:01:53;13.70;99.90
1447;DHT22;717;51.522;7.266;2023-11-21T02:04:27;13.70;99.90
1447;DHT22;717;51.522;7.266;2023-11-21T02:06:57;13.70;99.90
1447;DHT22;717;51.522;7.266;2023-11-21T02:09:28;13.80;99.90
1447;DHT22;717;51.522;7.266;2023-11-21T02:11:59;13.80;99.90
1447;DHT22;717;51.522;7.266;2023-11-21T02:14:31;13.80;99.90
1447;DHT22;717;51.522;7.266;2023-11-21T02:17:01;13.80;99.90
1447;DHT22;717;51.522;7.266;2023-11-21T02:19:33;13.80;99.90
1447;DHT22;717;51.522;7.266;2023-11-21T02:22:04;13.80;99.90
1447;DHT22;717;51.522;7.266;2023-11-21T02:24:37;13.80;99.90
1447;DHT22;717;51.522;7.266;2023-11-21T02:27:07;13.80;99.90
1447;DHT22;717;51.522;7.266;2023-11-21T02:29:37;13.80;99.90
1447;DHT22;717;51.522;7.266;2023-11-21T02:32:07;13.80;99.90
1447;DHT22;717;51.522;7.266;2023-11-21T02:34:37;13.80;99.90
1447;DHT22;717;51.522;7.266;2023-11-21T02:37:08;13.80;99.90
1447;DHT22;717;51.522;7.266;2023-11-21T02:39:41;13.70;99.90
1447;DHT22;717;51.522;7.266;2023-11-21T02:42:12;13.80;99.90
1447;DHT22;717;51.522;7.266;2023-11-21T02:44:42;13.70;99.90
1447;DHT22;717;51.522;7.266;2023-11-21T02:47:12;13.80;99.90
1447;DHT22;717;51.522;7.266;2023-11-21T02:49:42;13.70;99.90
1447;DHT22;717;51.522;7.266;2023-11-21T02:52:12;13.70;99.90
1447;DHT22;717;51.522;7.266;2023-11-21T02:54:46;13.70;99.90
1447;DHT22;717;51.522;7.266;2023-11-21T02:57:16;13.70;99.90
1447;DHT22;717;51.522;7.266;2023-11-21T02:59:46;13.70;99.90
1447;DHT22;717;51.522;7.266;2023-11-21T03:02:16;13.80;99.90
1447;DHT22;717;51.522;7.266;2023-11-21T03:04:46;13.80;99.90
1447;DHT22;717;51.522;7.266;2023-11-21T03:07:17;13.80;99.90
1447;DHT22;717;51.522;7.266;2023-11-21T03:09:50;13.80;99.90
1447;DHT22;717;51.522;7.266;2023-11-21T03:12:20;13.80;99.90
1447;DHT22;717;51.522;7.266;2023-11-21T03:14:50;13.80;99.90
1447;DHT22;717;51.522;7.266;2023-11-21T03:17:21;13.80;99.90
1447;DHT22;717;51.522;7.266;2023-11-21T03:19:51;13.80;99.90
1447;DHT22;717;51.522;7.266;2023-11-21T03:22:22;13.80;99.90
1447;DHT22;717;51.522;7.266;2023-11-21T03:24:54;13.80;99.90
1447;DHT22;717;51.522;7.266;2023-11-21T03:27:26;13.80;99.90
1447;DHT22;717;51.522;7.266;2023-11-21T03:29:56;13.80;99.90
1447;DHT22;717;51.522;7.266;2023-11-21T03:32:26;13.80;99.90
1447;DHT22;717;51.522;7.266;2023-11-21T03:34:59;13.80;99.90
1447;DHT22;717;51.522;7.266;2023-11-21T03:37:29;13.80;99.90
1447;DHT22;717;51.522;7.266;2023-11-21T03:40:04;13.80;99.90
1447;DHT22;717;51.522;7.266;2023-11-21T03:42:35;13.90;99.90
1447;DHT22;717;51.522;7.266;2023-11-21T03:45:07;13.90;99.90
1447;DHT22;717;51.522;7.266;2023-11-21T03:47:40;13.90;99.90
1447;DHT22;717;51.522;7.266;2023-11-21T03:50:10;13.80;99.90
1447;DHT22;717;51.522;7.266;2023-11-21T03:52:42;13.90;99.90
1447;DHT22;717;51.522;7.266;2023-11-21T03:55:15;13.90;99.90
1447;DHT22;717;51.522;7.266;2023-11-21T03:57:45;13.80;99.90
1447;DHT22;717;51.522;7.266;2023-11-21T04:00:16;13.80;99.90
1447;DHT22;717;51.522;7.266;2023-11-21T04:02:46;13.80;99.90
1447;DHT22;717;51.522;7.266;2023-11-21T04:05:20;13.80;99.90
1447;DHT22;717;51.522;7.266;2023-11-21T04:07:51;13.80;99.90
1447;DHT22;717;51.522;7.266;2023-11-21T04:10:24;13.80;99.90
1447;DHT22;717;51.522;7.266;2023-11-21T04:12:54;13.80;99.90
1447;DHT22;717;51.522;7.266;2023-11-21T04:15:24;13.80;99.90
1447;DHT22;717;51.522;7.266;2023-11-21T04:17:54;13.80;99.90
1447;DHT22;717;51.522;7.266;2023-11-21T04:20:24;13.80;99.90
1447;DHT22;717;51.522;7.266;2023-11-21T04:22:54;13.80;99.90
1447;DHT22;717;51.522;7.266;2023-11-21T04:25:27;13.80;99.90
1447;DHT22;717;51.522;7.266;2023-11-21T04:27:57;13.80;99.90
1447;DHT22;717;51.522;7.266;2023-11-21T04:30:27;13.80;99.90
1447;DHT22;717;51.522;7.266;2023-11-21T04:32:57;13.80;99.90
1447;DHT22;717;51.522;7.266;2023-11-21T04:35:28;13.80;99.90
1447;DHT22;717;51.522;7.266;2023-11-21T04:37:58;13.80;99.90
1447;DHT22;717;51.522;7.266;2023-11-21T04:40:30;13.90;99.90
1447;DHT22;717;51.522;7.266;2023-11-21T04:43:00;13.80;99.90
1447;DHT22;717;51.522;7.266;2023-11-21T04:45:31;13.90;99.90
1447;DHT22;717;51.522;7.266;2023-11-21T04:48:01;13.80;99.90
1447;DHT22;717;51.522;7.266;2023-11-21T04:50:31;13.80;99.90
1447;DHT22;717;51.522;7.266;2023-11-21T04:53:01;13.80;99.90
1447;DHT22;717;51.522;7.266;2023-11-21T04:55:35;13.80;99.90
1447;DHT22;717;51.522;7.266;2023-11-21T04:58:06;13.80;99.90
1447;DHT22;717;51.522;7.266;2023-11-21T05:00:36;13.80;99.90
1447;DHT22;717;51.522;7.266;2023-11-21T05:03:06;13.80;99.90
1447;DHT22;717;51.522;7.266;2023-11-21T05:05:37;13.70;99.90
1447;DHT22;717;51.522;7.266;2023-11-21T05:08:07;13.70;99.90
1447;DHT22;717;51.522;7.266;2023-11-21T05:10:40;13.70;99.90
1447;DHT22;717;51.522;7.266;2023-11-21T05:13:10;13.70;99.90
1447;DHT22;717;51.522;7.266;2023-11-21T05:15:41;13.70;99.90
1447;DHT22;717;51.522;7.266;2023-11-21T05:18:11;13.70;99.90
1447;DHT22;717;51.522;7.266;2023-11-21T05:20:41;13.70;99.90
1447;DHT22;717;51.522;7.266;2023-11-21T05:23:12;13.70;99.90
1447;DHT22;717;51.522;7.266;2023-11-21T05:25:44;13.70;99.90
1447;DHT22;717;51.522;7.266;2023-11-21T05:28:15;13.70;99.90
1447;DHT22;717;51.522;7.266;2023-11-21T05:30:45;13.70;99.90
1447;DHT22;717;51.522;7.266;2023-11-21T05:33:23;13.70;99.90
1447;DHT22;717;51.522;7.266;2023-11-21T05:35:54;13.70;99.90
1447;DHT22;717;51.522;7.266;2023-11-21T05:38:24;13.70;99.90
1447;DHT22;717;51.522;7.266;2023-11-21T05:40:56;13.70;99.90
1447;DHT22;717;51.522;7.266;2023-11-21T05:43:27;13.70;99.90
1447;DHT22;717;51.522;7.266;2023-11-21T05:45:57;13.70;99.90
1447;DHT22;717;51.522;7.266;2023-11-21T05:48:27;13.70;99.90
1447;DHT22;717;51.522;7.266;2023-11-21T05:50:58;13.60;99.90
1447;DHT22;717;51.522;7.266;2023-11-21T05:53:28;13.60;99.90
1447;DHT22;717;51.522;7.266;2023-11-21T05:56:01;13.70;99.90
1447;DHT22;717;51.522;7.266;2023-11-21T05:58:32;13.70;99.90
1447;DHT22;717;51.522;7.266;2023-11-21T06:01:06;13.60;99.90
1447;DHT22;717;51.522;7.266;2023-11-21T06:03:40;13.60;99.90
1447;DHT22;717;51.522;7.266;2023-11-21T06:06:10;13.60;99.90
1447;DHT22;717;51.522;7.266;2023-11-21T06:08:40;13.60;99.90
1447;DHT22;717;51.522;7.266;2023-11-21T06:11:13;13.60;99.90
1447;DHT22;717;51.522;7.266;2023-11-21T06:13:44;13.60;99.90
1447;DHT22;717;51.522;7.266;2023-11-21T06:16:15;13.60;99.90
1447;DHT22;717;51.522;7.266;2023-11-21T06:18:46;13.50;99.90
1447;DHT22;717;51.522;7.266;2023-11-21T06:21:16;13.50;99.90
1447;DHT22;717;51.522;7.266;2023-11-21T06:23:47;13.50;99.90
1447;DHT22;717;51.522;7.266;2023-11-21T06:26:22;13.50;99.90
1447;DHT22;717;51.522;7.266;2023-11-21T06:28:52;13.50;99.90
1447;DHT22;717;51.522;7.266;2023-11-21T06:31:24;13.50;99.90
1447;DHT22;717;51.522;7.266;2023-11-21T06:33:54;13.40;99.90
1447;DHT22;717;51.522;7.266;2023-11-21T06:36:26;13.40;99.90
1447;DHT22;717;51.522;7.266;2023-11-21T06:38:56;13.40;99.90
1447;DHT22;717;51.522;7.266;2023-11-21T06:41:29;13.40;99.90
1447;DHT22;717;51.522;7.266;2023-11-21T06:43:59;13.40;99.90
1447;DHT22;717;51.522;7.266;2023-11-21T06:46:29;13.40;99.90
1447;DHT22;717;51.522;7.266;2023-11-21T06:49:00;13.40;99.90
1447;DHT22;717;51.522;7.266;2023-11-21T06:51:30;13.40;99.90
1447;DHT22;717;51.522;7.266;2023-11-21T06:54:00;13.40;99.90
1447;DHT22;717;51.522;7.266;2023-11-21T06:56:33;13.40;99.90
1447;DHT22;717;51.522;7.266;2023-11-21T06:59:03;13.40;99.90
1447;DHT22;717;51.522;7.266;2023-11-21T07:01:33;13.30;99.90
1447;DHT22;717;51.522;7.266;2023-11-21T07:04:06;13.40;99.90
1447;DHT22;717;51.522;7.266;2023-11-21T07:06:36;13.30;99.90
1447;DHT22;717;51.522;7.266;2023-11-21T07:09:06;13.40;99.90
1447;DHT22;717;51.522;7.266;2023-11-21T07:11:41;13.40;99.90
1447;DHT22;717;51.522;7.266;2023-11-21T07:14:11;13.40;99.90
1447;DHT22;717;51.522;7.266;2023-11-21T07:16:41;13.40;99.90
1447;DHT22;717;51.522;7.266;2023-11-21T07:19:11;13.40;99.90
1447;DHT22;717;51.522;7.266;2023-11-21T07:21:42;13.40;99.90
1447;DHT22;717;51.522;7.266;2023-11-21T07:24:12;13.40;99.90
1447;DHT22;717;51.522;7.266;2023-11-21T07:26:45;13.40;99.90
1447;DHT22;717;51.522;7.266;2023-11-21T07:29:16;13.40;99.90
1447;DHT22;717;51.522;7.266;2023-11-21T07:31:46;13.40;99.90
1447;DHT22;717;51.522;7.266;2023-11-21T07:34:17;13.40;99.90
1447;DHT22;717;51.522;7.266;2023-11-21T07:36:47;13.50;99.90
1447;DHT22;717;51.522;7.266;2023-11-21T07:39:17;13.50;99.90
1447;DHT22;717;51.522;7.266;2023-11-21T07:41:50;13.50;99.90
1447;DHT22;717;51.522;7.266;2023-11-21T07:44:21;13.50;99.90
1447;DHT22;717;51.522;7.266;2023-11-21T07:46:51;13.50;99.90
1447;DHT22;717;51.522;7.266;2023-11-21T07:49:24;13.60;99.90
1447;DHT22;717;51.522;7.266;2023-11-21T07:51:54;13.50;99.90
1447;DHT22;717;51.522;7.266;2023-11-21T07:54:24;13.60;99.90
1447;DHT22;717;51.522;7.266;2023-11-21T07:56:57;13.60;99.90
1447;DHT22;717;51.522;7.266;2023-11-21T07:59:27;13.60;99.90
1447;DHT22;717;51.522;7.266;2023-11-21T08:01:57;13.60;99.90
1447;DHT22;717;51.522;7.266;2023-11-21T08:04:27;13.60;99.90
1447;DHT22;717;51.522;7.266;2023-11-21T08:07:01;13.70;99.90
1447;DHT22;717;51.522;7.266;2023-11-21T08:09:31;13.70;99.90
1447;DHT22;717;51.522;7.266;2023-11-21T08:12:05;13.60;99.90
1447;DHT22;717;51.522;7.266;2023-11-21T08:14:35;13.70;99.90
1447;DHT22;717;51.522;7.266;2023-11-21T08:17:07;13.70;99.90
1447;DHT22;717;51.522;7.266;2023-11-21T08:19:39;13.70;99.90
1447;DHT22;717;51.522;7.266;2023-11-21T08:22:09;13.70;99.90
1447;DHT22;717;51.522;7.266;2023-11-21T08:24:39;13.70;99.90
1447;DHT22;717;51.522;7.266;2023-11-21T08:27:12;13.80;99.90
1447;DHT22;717;51.522;7.266;2023-11-21T08:29:43;13.70;99.90
1447;DHT22;717;51.522;7.266;2023-11-21T08:32:13;13.80;99.90
1447;DHT22;717;51.522;7.266;2023-11-21T08:34:43;13.80;99.90
1447;DHT22;717;51.522;7.266;2023-11-21T08:37:18;13.70;99.90
1447;DHT22;717;51.522;7.266;2023-11-21T08:39:48;13.80;99.90
1447;DHT22;717;51.522;7.266;2023-11-21T08:42:22;13.70;99.90
1447;DHT22;717;51.522;7.266;2023-11-21T08:44:52;13.70;99.90
1447;DHT22;717;51.522;7.266;2023-11-21T08:47:24;13.70;99.90
1447;DHT22;717;51.522;7.266;2023-11-21T08:49:54;13.70;99.90
1447;DHT22;717;51.522;7.266;2023-11-21T08:52:25;13.70;99.90
1447;DHT22;717;51.522;7.266;2023-11-21T08:54:55;13.70;99.90
1447;DHT22;717;51.522;7.266;2023-11-21T08:57:32;13.60;99.90
1447;DHT22;717;51.522;7.266;2023-11-21T09:00:03;13.60;99.90
1447;DHT22;717;51.522;7.266;2023-11-21T09:02:35;13.60;99.90
1447;DHT22;717;51.522;7.266;2023-11-21T09:05:06;13.60;99.90
1447;DHT22;717;51.522;7.266;2023-11-21T09:07:36;13.60;99.90
1447;DHT22;717;51.522;7.266;2023-11-21T09:10:08;13.70;99.90
1447;DHT22;717;51.522;7.266;2023-11-21T09:12:41;13.70;99.90
1447;DHT22;717;51.522;7.266;2023-11-21T09:15:11;13.70;99.90
1447;DHT22;717;51.522;7.266;2023-11-21T09:17:42;13.70;99.90
1447;DHT22;717;51.522;7.266;2023-11-21T09:20:12;13.70;99.90
1447;DHT22;717;51.522;7.266;2023-11-21T09:22:43;13.60;99.90
1447;DHT22;717;51.522;7.266;2023-11-21T09:25:14;13.70;99.90
1447;DHT22;717;51.522;7.266;2023-11-21T09:27:47;13.70;99.90
1447;DHT22;717;51.522;7.266;2023-11-21T09:30:17;13.70;99.90
1447;DHT22;717;51.522;7.266;2023-11-21T09:32:47;13.70;99.90
1447;DHT22;717;51.522;7.266;2023-11-21T09:35:17;13.70;99.90
1447;DHT22;717;51.522;7.266;2023-11-21T09:37:48;13.70;99.90
1447;DHT22;717;51.522;7.266;2023-11-21T09:40:21;13.70;99.90
1447;DHT22;717;51.522;7.266;2023-11-21T09:42:56;13.70;99.90
1447;DHT22;717;51.522;7.266;2023-11-21T09:45:27;13.80;99.90
1447;DHT22;717;51.522;7.266;2023-11-21T09:47:58;13.80;99.90
1447;DHT22;717;51.522;7.266;2023-11-21T09:50:29;13.80;99.90
1447;DHT22;717;51.522;7.266;2023-11-21T09:53:09;13.80;99.90
1447;DHT22;717;51.522;7.266;2023-11-21T09:55:43;13.90;99.90
1447;DHT22;717;51.522;7.266;2023-11-21T09:58:16;13.90;99.90
1447;DHT22;717;51.522;7.266;2023-11-21T10:00:48;13.90;99.90
1447;DHT22;717;51.522;7.266;2023-11-21T10:03:18;13.90;99.90
1447;DHT22;717;51.522;7.266;2023-11-21T10:05:50;13.90;99.90
1447;DHT22;717;51.522;7.266;2023-11-21T10:08:22;13.90;99.90
1447;DHT22;717;51.522;7.266;2023-11-21T10:11:14;13.90;99.90
1447;DHT22;717;51.522;7.266;2023-11-21T10:13:48;13.90;99.90
1447;DHT22;717;51.522;7.266;2023-11-21T10:16:20;13.90;99.90
1447;DHT22;717;51.522;7.266;2023-11-21T10:18:53;14.00;99.90
1447;DHT22;717;51.522;7.266;2023-11-21T10:21:38;13.90;99.90
1447;DHT22;717;51.522;7.266;2023-11-21T10:24:08;13.90;99.90
1447;DHT22;717;51.522;7.266;2023-11-21T10:26:39;13.90;99.90
1447;DHT22;717;51.522;7.266;2023-11-21T10:29:22;13.90;99.90
1447;DHT22;717;51.522;7.266;2023-11-21T10:31:54;13.90;99.90
1447;DHT22;717;51.522;7.266;2023-11-21T10:34:26;13.90;99.90
1447;DHT22;717;51.522;7.266;2023-11-21T10:36:57;13.90;99.90
1447;DHT22;717;51.522;7.266;2023-11-21T10:39:27;13.90;99.90
1447;DHT22;717;51.522;7.266;2023-11-21T10:41:58;14.00;99.90
1447;DHT22;717;51.522;7.266;2023-11-21T10:44:31;14.00;99.90
1447;DHT22;717;51.522;7.266;2023-11-21T10:47:02;14.00;99.90
1447;DHT22;717;51.522;7.266;2023-11-21T10:49:32;14.00;99.90
1447;DHT22;717;51.522;7.266;2023-11-21T10:52:03;14.00;99.90
1447;DHT22;717;51.522;7.266;2023-11-21T10:54:33;14.10;99.90
1447;DHT22;717;51.522;7.266;2023-11-21T10:57:04;14.10;99.90
1447;DHT22;717;51.522;7.266;2023-11-21T10:59:37;14.10;99.90
1447;DHT22;717;51.522;7.266;2023-11-21T11:02:18;14.10;99.90
1447;DHT22;717;51.522;7.266;2023-11-21T11:04:52;14.20;99.90
1447;DHT22;717;51.522;7.266;2023-11-21T11:07:26;14.20;99.90
1447;DHT22;717;51.522;7.266;2023-11-21T11:09:59;14.20;99.90
1447;DHT22;717;51.522;7.266;2023-11-21T11:12:31;14.20;99.90
1447;DHT22;717;51.522;7.266;2023-11-21T11:15:05;14.20;99.90
1447;DHT22;717;51.522;7.266;2023-11-21T11:17:37;14.30;99.90
1447;DHT22;717;51.522;7.266;2023-11-21T11:20:11;14.30;99.90
1447;DHT22;717;51.522;7.266;2023-11-21T11:22:50;14.30;99.90
1447;DHT22;717;51.522;7.266;2023-11-21T11:25:34;14.30;99.90
1447;DHT22;717;51.522;7.266;2023-11-21T11:28:15;14.30;99.90
1447;DHT22;717;51.522;7.266;2023-11-21T11:30:59;14.40;99.90
1447;DHT22;717;51.522;7.266;2023-11-21T11:33:41;14.40;99.90
1447;DHT22;717;51.522;7.266;2023-11-21T11:36:20;14.40;99.90
1447;DHT22;717;51.522;7.266;2023-11-21T11:38:52;14.40;99.90
1447;DHT22;717;51.522;7.266;2023-11-21T11:41:27;14.40;99.90
1447;DHT22;717;51.522;7.266;2023-11-21T11:44:00;14.40;99.90
1447;DHT22;717;51.522;7.266;2023-11-21T11:46:44;14.40;99.90
1447;DHT22;717;51.522;7.266;2023-11-21T11:49:23;14.40;99.90
1447;DHT22;717;51.522;7.266;2023-11-21T11:54:54;14.40;99.90
1447;DHT22;717;51.522;7.266;2023-11-21T11:57:25;14.40;99.90
1447;DHT22;717;51.522;7.266;2023-11-21T12:00:08;14.40;99.90
1447;DHT22;717;51.522;7.266;2023-11-21T12:02:48;14.40;99.90
1447;DHT22;717;51.522;7.266;2023-11-21T12:05:20;14.40;99.90
1447;DHT22;717;51.522;7.266;2023-11-21T12:07:51;14.40;99.90
1447;DHT22;717;51.522;7.266;2023-11-21T12:10:26;14.40;99.90
1447;DHT22;717;51.522;7.266;2023-11-21T12:12:57;14.40;99.90
1447;DHT22;717;51.522;7.266;2023-11-21T12:15:28;14.40;99.90
1447;DHT22;717;51.522;7.266;2023-11-21T12:18:01;14.40;99.90
1447;DHT22;717;51.522;7.266;2023-11-21T12:20:33;14.40;99.90
1447;DHT22;717;51.522;7.266;2023-11-21T12:23:07;14.50;99.90
1447;DHT22;717;51.522;7.266;2023-11-21T12:25:38;14.50;99.90
1447;DHT22;717;51.522;7.266;2023-11-21T12:28:09;14.40;99.90
1447;DHT22;717;51.522;7.266;2023-11-21T12:30:39;14.40;99.90
1447;DHT22;717;51.522;7.266;2023-11-21T12:33:12;14.40;99.90
1447;DHT22;717;51.522;7.266;2023-11-21T12:35:44;14.50;99.90
1447;DHT22;717;51.522;7.266;2023-11-21T12:38:15;14.50;99.90
1447;DHT22;717;51.522;7.266;2023-11-21T12:40:46;14.50;99.90
1447;DHT22;717;51.522;7.266;2023-11-21T12:43:17;14.50;99.90
1447;DHT22;717;51.522;7.266;2023-11-21T12:45:48;14.50;99.90
1447;DHT22;717;51.522;7.266;2023-11-21T12:48:23;14.50;99.90
1447;DHT22;717;51.522;7.266;2023-11-21T12:50:53;14.50;99.90
1447;DHT22;717;51.522;7.266;2023-11-21T12:53:27;14.60;99.90
1447;DHT22;717;51.522;7.266;2023-11-21T12:56:07;14.60;99.90
1447;DHT22;717;51.522;7.266;2023-11-21T12:58:38;14.50;99.90
1447;DHT22;717;51.522;7.266;2023-11-21T13:01:09;14.60;99.90
1447;DHT22;717;51.522;7.266;2023-11-21T13:03:42;14.60;99.90
1447;DHT22;717;51.522;7.266;2023-11-21T13:06:15;14.50;99.90
1447;DHT22;717;51.522;7.266;2023-11-21T13:08:46;14.50;99.90
1447;DHT22;717;51.522;7.266;2023-11-21T13:11:17;14.60;99.90
1447;DHT22;717;51.522;7.266;2023-11-21T13:13:47;14.50;99.90
1447;DHT22;717;51.522;7.266;2023-11-21T13:16:20;14.50;99.90
1447;DHT22;717;51.522;7.266;2023-11-21T13:18:53;14.50;99.90
1447;DHT22;717;51.522;7.266;2023-11-21T13:21:24;14.50;99.90
1447;DHT22;717;51.522;7.266;2023-11-21T13:23:54;14.50;99.90
1447;DHT22;717;51.522;7.266;2023-11-21T13:26:24;14.50;99.90
1447;DHT22;717;51.522;7.266;2023-11-21T13:28:54;14.50;99.90
1447;DHT22;717;51.522;7.266;2023-11-21T13:31:26;14.50;99.90
1447;DHT22;717;51.522;7.266;2023-11-21T13:34:02;14.50;99.90
1447;DHT22;717;51.522;7.266;2023-11-21T13:36:35;14.50;99.90
1447;DHT22;717;51.522;7.266;2023-11-21T13:39:05;14.50;99.90
1447;DHT22;717;51.522;7.266;2023-11-21T13:41:42;14.50;99.90
1447;DHT22;717;51.522;7.266;2023-11-21T13:44:15;14.50;99.90
1447;DHT22;717;51.522;7.266;2023-11-21T13:46:54;14.50;99.90
1447;DHT22;717;51.522;7.266;2023-11-21T13:49:28;14.50;99.90
1447;DHT22;717;51.522;7.266;2023-11-21T13:52:03;14.50;99.90
1447;DHT22;717;51.522;7.266;2023-11-21T13:54:34;14.50;99.90
1447;DHT22;717;51.522;7.266;2023-11-21T13:57:05;14.50;99.90
1447;DHT22;717;51.522;7.266;2023-11-21T13:59:35;14.50;99.90
1447;DHT22;717;51.522;7.266;2023-11-21T14:02:05;14.50;99.90
1447;DHT22;717;51.522;7.266;2023-11-21T14:04:48;14.50;99.90
1447;DHT22;717;51.522;7.266;2023-11-21T14:07:26;14.50;99.90
1447;DHT22;717;51.522;7.266;2023-11-21T14:10:04;14.50;99.90
1447;DHT22;717;51.522;7.266;2023-11-21T14:12:38;14.50;99.90
1447;DHT22;717;51.522;7.266;2023-11-21T14:15:10;14.50;99.90
1447;DHT22;717;51.522;7.266;2023-11-21T14:17:44;14.50;99.90
1447;DHT22;717;51.522;7.266;2023-11-21T14:20:17;14.50;99.90
1447;DHT22;717;51.522;7.266;2023-11-21T14:22:48;14.40;99.90
1447;DHT22;717;51.522;7.266;2023-11-21T14:25:18;14.40;99.90
1447;DHT22;717;51.522;7.266;2023-11-21T14:27:50;14.50;99.90
1447;DHT22;717;51.522;7.266;2023-11-21T14:30:20;14.40;99.90
1447;DHT22;717;51.522;7.266;2023-11-21T14:32:50;14.40;99.90
1447;DHT22;717;51.522;7.266;2023-11-21T14:35:23;14.40;99.90
1447;DHT22;717;51.522;7.266;2023-11-21T14:37:53;14.40;99.90
1447;DHT22;717;51.522;7.266;2023-11-21T14:40:25;14.40;99.90
1447;DHT22;717;51.522;7.266;2023-11-21T14:43:00;14.30;99.90
1447;DHT22;717;51.522;7.266;2023-11-21T14:45:32;14.30;99.90
1447;DHT22;717;51.522;7.266;2023-11-21T14:48:03;14.30;99.90
1447;DHT22;717;51.522;7.266;2023-11-21T14:50:46;14.30;99.90
1447;DHT22;717;51.522;7.266;2023-11-21T14:53:39;14.30;99.90
1447;DHT22;717;51.522;7.266;2023-11-21T14:56:10;14.30;99.90
1447;DHT22;717;51.522;7.266;2023-11-21T14:58:48;14.30;99.90
1447;DHT22;717;51.522;7.266;2023-11-21T15:01:16;14.30;99.90
1447;DHT22;717;51.522;7.266;2023-11-21T15:03:54;14.20;99.90
1447;DHT22;717;51.522;7.266;2023-11-21T15:06:25;14.30;99.90
1447;DHT22;717;51.522;7.266;2023-11-21T15:08:57;14.20;99.90
1447;DHT22;717;51.522;7.266;2023-11-21T15:11:40;14.20;99.90
1447;DHT22;717;51.522;7.266;2023-11-21T15:14:10;14.20;99.90
1447;DHT22;717;51.522;7.266;2023-11-21T15:16:47;14.20;99.90
1447;DHT22;717;51.522;7.266;2023-11-21T15:19:20;14.20;99.90
1447;DHT22;717;51.522;7.266;2023-11-21T15:21:56;14.20;99.90
1447;DHT22;717;51.522;7.266;2023-11-21T15:24:26;14.20;99.90
1447;DHT22;717;51.522;7.266;2023-11-21T15:26:56;14.20;99.90
1447;DHT22;717;51.522;7.266;2023-11-21T15:29:26;14.20;99.90
1447;DHT22;717;51.522;7.266;2023-11-21T15:31:56;14.10;99.90
1447;DHT22;717;51.522;7.266;2023-11-21T15:34:27;14.10;99.90
1447;DHT22;717;51.522;7.266;2023-11-21T15:37:01;14.00;99.90
1447;DHT22;717;51.522;7.266;2023-11-21T15:39:33;14.00;99.90
1447;DHT22;717;51.522;7.266;2023-11-21T15:42:03;14.00;99.90
1447;DHT22;717;51.522;7.266;2023-11-21T15:44:34;14.00;99.90
1447;DHT22;717;51.522;7.266;2023-11-21T15:47:04;14.00;99.90
1447;DHT22;717;51.522;7.266;2023-11-21T15:49:36;14.00;99.90
1447;DHT22;717;51.522;7.266;2023-11-21T15:52:09;13.90;99.90
1447;DHT22;717;51.522;7.266;2023-11-21T15:54:39;13.90;99.90
1447;DHT22;717;51.522;7.266;2023-11-21T15:57:13;13.80;99.90
1447;DHT22;717;51.522;7.266;2023-11-21T15:59:44;13.80;99.90
1447;DHT22;717;51.522;7.266;2023-11-21T16:02:14;13.80;99.90
1447;DHT22;717;51.522;7.266;2023-11-21T16:04:45;13.80;99.90
1447;DHT22;717;51.522;7.266;2023-11-21T16:07:17;13.70;99.90
1447;DHT22;717;51.522;7.266;2023-11-21T16:09:48;13.60;99.90
1447;DHT22;717;51.522;7.266;2023-11-21T16:12:18;13.60;99.90
1447;DHT22;717;51.522;7.266;2023-11-21T16:14:50;13.60;99.90
1447;DHT22;717;51.522;7.266;2023-11-21T16:17:20;13.50;99.90
1447;DHT22;717;51.522;7.266;2023-11-21T16:19:51;13.60;99.90
1447;DHT22;717;51.522;7.266;2023-11-21T16:22:25;13.50;99.90
1447;DHT22;717;51.522;7.266;2023-11-21T16:24:57;13.50;99.90
1447;DHT22;717;51.522;7.266;2023-11-21T16:27:27;13.40;99.90
1447;DHT22;717;51.522;7.266;2023-11-21T16:29:57;13.40;99.90
1447;DHT22;717;51.522;7.266;2023-11-21T16:32:28;13.40;99.90
1447;DHT22;717;51.522;7.266;2023-11-21T16:34:59;13.40;99.90
1447;DHT22;717;51.522;7.266;2023-11-21T16:37:33;13.40;99.90
1447;DHT22;717;51.522;7.266;2023-11-21T16:40:03;13.40;99.90
1447;DHT22;717;51.522;7.266;2023-11-21T16:42:36;13.30;99.90
1447;DHT22;717;51.522;7.266;2023-11-21T16:45:07;13.30;99.90
1447;DHT22;717;51.522;7.266;2023-11-21T16:47:37;13.30;99.90
1447;DHT22;717;51.522;7.266;2023-11-21T16:50:08;13.30;99.90